Time;durP1;ratioP1;P1;durP2;ratioP2;P2;SDS_P1;SDS_P2;PMS_P1;PMS_P2;Temp;Humidity;BMP_temperature;BMP_pressure;BME280_temperature;BME280_humidity;BME280_pressure;Samples;Min_cycle;Max_cycle;Signal;HPM_P1;HPM_P2
2021/11/13 00:00:39;;;;;;;23.30;16.63;;;8.80;98.90;;;;;;4995130;28;20053;-84
2021/11/13 00:03:05;;;;;;;26.63;18.05;;;8.80;98.90;;;;;;4995394;28;20046;-84
2021/11/13 00:05:31;;;;;;;24.67;16.92;;;8.90;99.00;;;;;;4995735;28;20050;-84
2021/11/13 00:07:56;;;;;;;24.25;16.70;;;8.90;99.00;;;;;;4994614;28;20034;-84
2021/11/13 00:10:27;;;;;;;28.17;17.80;;;8.90;99.00;;;;;;4995409;28;20096;-84
2021/11/13 00:12:54;;;;;;;27.42;18.08;;;8.90;99.00;;;;;;4995036;28;20509;-84
2021/11/13 00:15:21;;;;;;;26.33;17.10;;;8.90;99.10;;;;;;4995648;28;20087;-84
2021/11/13 00:17:48;;;;;;;24.50;17.05;;;8.90;99.10;;;;;;4995497;28;20540;-85
2021/11/13 00:20:14;;;;;;;26.23;17.38;;;8.90;99.40;;;;;;4995123;28;20481;-84
2021/11/13 00:22:40;;;;;;;22.38;16.02;;;8.90;99.00;;;;;;4995429;28;20046;-84
2021/11/13 00:25:06;;;;;;;25.77;17.38;;;8.90;99.00;;;;;;4995389;28;20041;-85
2021/11/13 00:27:31;;;;;;;22.48;15.98;;;8.90;99.00;;;;;;4995235;28;20046;-85
2021/11/13 00:29:57;;;;;;;23.58;17.23;;;8.90;99.10;;;;;;4994795;28;20508;-84
2021/11/13 00:32:23;;;;;;;26.70;18.23;;;8.90;99.00;;;;;;4998138;28;20469;-85
2021/11/13 00:34:51;;;;;;;26.50;17.67;;;8.90;99.10;;;;;;4998648;28;20129;-83
2021/11/13 00:37:17;;;;;;;27.02;16.60;;;8.90;99.10;;;;;;4997957;28;20092;-85
2021/11/13 00:39:43;;;;;;;24.08;17.10;;;8.90;99.10;;;;;;4999456;28;20042;-85
2021/11/13 00:42:08;;;;;;;26.55;17.48;;;8.90;99.10;;;;;;4998640;28;20378;-85
2021/11/13 00:44:34;;;;;;;25.17;17.38;;;8.90;99.10;;;;;;4998558;28;20140;-85
2021/11/13 00:47:01;;;;;;;28.40;18.15;;;8.90;99.20;;;;;;4999535;28;20050;-85
2021/11/13 00:49:27;;;;;;;23.23;16.88;;;8.90;99.20;;;;;;4998257;28;20068;-85
2021/11/13 00:51:53;;;;;;;23.23;17.48;;;8.90;99.20;;;;;;4999304;28;20037;-85
2021/11/13 00:54:19;;;;;;;25.00;17.33;;;8.90;99.20;;;;;;4997784;28;20459;-85
2021/11/13 00:56:46;;;;;;;23.38;16.20;;;8.90;99.20;;;;;;4998989;28;20068;-84
2021/11/13 00:59:13;;;;;;;25.92;17.10;;;8.90;99.20;;;;;;4998703;28;20168;-85
2021/11/13 01:01:38;;;;;;;23.25;16.92;;;8.90;99.60;;;;;;4998783;28;20077;-84
2021/11/13 01:04:04;;;;;;;26.35;17.08;;;8.90;99.20;;;;;;4998223;28;20614;-84
2021/11/13 01:06:30;;;;;;;22.73;16.67;;;8.90;99.20;;;;;;4998627;28;20038;-84
2021/11/13 01:08:55;;;;;;;25.55;18.13;;;8.90;99.20;;;;;;4996687;28;20048;-85
2021/11/13 01:11:24;;;;;;;26.85;17.38;;;8.90;99.20;;;;;;4999349;28;20432;-84
2021/11/13 01:13:50;;;;;;;30.17;18.58;;;8.90;99.30;;;;;;4998444;28;20061;-85
2021/11/13 01:16:16;;;;;;;23.98;16.75;;;8.90;99.40;;;;;;4997732;28;20073;-85
2021/11/13 01:18:43;;;;;;;21.20;15.82;;;8.90;99.30;;;;;;4998137;28;20044;-85
2021/11/13 01:21:10;;;;;;;23.58;17.02;;;8.90;99.30;;;;;;4998740;28;20046;-86
2021/11/13 01:23:36;;;;;;;24.10;16.95;;;8.90;99.30;;;;;;4997975;28;20046;-85
2021/11/13 01:26:03;;;;;;;31.00;18.10;;;8.90;99.30;;;;;;4997835;28;20057;-85
2021/11/13 01:28:28;;;;;;;23.60;16.35;;;8.90;99.30;;;;;;4998612;28;20410;-85
2021/11/13 01:30:54;;;;;;;23.63;17.35;;;8.90;99.30;;;;;;4997424;28;20088;-84
2021/11/13 01:33:20;;;;;;;24.38;17.42;;;8.90;99.30;;;;;;4997666;28;20042;-84
2021/11/13 01:35:47;;;;;;;26.27;17.95;;;8.90;99.30;;;;;;4998239;28;20048;-83
2021/11/13 01:38:12;;;;;;;24.83;17.38;;;8.90;99.40;;;;;;4997026;28;20053;-83
2021/11/13 01:40:39;;;;;;;24.35;18.02;;;8.90;99.40;;;;;;4998426;28;20038;-84
2021/11/13 01:43:05;;;;;;;24.08;17.92;;;8.90;99.40;;;;;;4996400;28;20050;-84
2021/11/13 01:45:30;;;;;;;23.73;17.33;;;8.90;99.40;;;;;;4997076;28;20149;-83
2021/11/13 01:47:56;;;;;;;24.55;17.25;;;9.00;99.50;;;;;;4996955;28;20050;-83
2021/11/13 01:50:35;;;;;;;25.30;17.73;;;8.90;99.40;;;;;;4998543;28;20034;-83
2021/11/13 01:53:03;;;;;;;21.67;16.00;;;8.90;99.50;;;;;;4997236;28;20048;-84
2021/11/13 01:55:34;;;;;;;22.08;15.35;;;9.00;99.50;;;;;;4997406;28;20049;-84
2021/11/13 01:58:02;;;;;;;23.83;16.17;;;9.00;99.40;;;;;;4997969;28;20461;-84
2021/11/13 02:00:35;;;;;;;22.63;16.80;;;9.00;99.40;;;;;;4997141;28;20046;-84
2021/11/13 02:03:01;;;;;;;21.40;16.67;;;9.00;99.50;;;;;;4997755;28;20077;-85
2021/11/13 02:05:27;;;;;;;21.23;16.40;;;9.00;99.50;;;;;;4996587;28;20042;-84
2021/11/13 02:07:53;;;;;;;24.00;16.25;;;9.00;99.50;;;;;;4998375;28;20037;-84
2021/11/13 02:10:19;;;;;;;23.85;16.65;;;9.00;99.60;;;;;;4997547;28;20042;-84
2021/11/13 02:12:46;;;;;;;22.88;16.05;;;9.00;99.60;;;;;;4996960;28;20125;-85
2021/11/13 02:15:12;;;;;;;22.40;16.17;;;9.00;99.60;;;;;;4996878;28;20038;-85
2021/11/13 02:17:38;;;;;;;19.08;14.75;;;9.00;99.60;;;;;;4997609;28;20050;-85
2021/11/13 02:20:22;;;;;;;19.80;14.73;;;9.00;99.60;;;;;;4996689;28;20045;-85
2021/11/13 02:22:49;;;;;;;21.50;14.73;;;9.00;99.50;;;;;;4997494;28;20079;-85
2021/11/13 02:25:18;;;;;;;19.13;14.52;;;9.10;99.60;;;;;;4996683;28;20057;-85
2021/11/13 02:27:44;;;;;;;19.33;14.25;;;9.10;99.70;;;;;;4996895;28;20077;-84
2021/11/13 02:30:11;;;;;;;20.20;14.15;;;9.00;99.80;;;;;;4996649;28;20124;-84
2021/11/13 02:32:37;;;;;;;16.70;13.60;;;9.10;99.80;;;;;;4997168;28;20478;-84
2021/11/13 02:35:05;;;;;;;19.17;13.15;;;9.10;99.80;;;;;;4996235;28;20033;-84
2021/11/13 02:37:31;;;;;;;17.70;12.95;;;9.10;99.80;;;;;;4996421;28;20045;-84
2021/11/13 02:39:57;;;;;;;18.05;13.23;;;9.10;99.70;;;;;;4996866;28;20037;-84
2021/11/13 02:42:24;;;;;;;16.25;13.23;;;9.10;99.70;;;;;;4997210;28;20038;-84
2021/11/13 02:44:50;;;;;;;16.60;13.38;;;9.10;99.70;;;;;;4996859;28;20137;-85
2021/11/13 02:47:18;;;;;;;16.58;12.88;;;9.10;99.80;;;;;;4996603;28;20037;-84
2021/11/13 02:49:45;;;;;;;15.77;12.75;;;9.10;99.90;;;;;;4996102;28;20042;-86
2021/11/13 02:52:11;;;;;;;16.45;12.52;;;9.10;99.90;;;;;;4994213;28;20487;-85
2021/11/13 02:54:45;;;;;;;17.27;13.13;;;9.10;99.90;;;;;;4995999;28;20052;-86
2021/11/13 02:57:11;;;;;;;15.75;12.15;;;9.10;99.90;;;;;;4993344;28;20104;-84
2021/11/13 02:59:45;;;;;;;16.45;12.60;;;9.10;99.90;;;;;;4996824;28;20053;-84
2021/11/13 03:02:11;;;;;;;16.38;12.63;;;9.10;99.90;;;;;;4995681;28;20069;-84
2021/11/13 03:04:37;;;;;;;15.48;12.50;;;9.20;99.90;;;;;;4996769;28;20076;-84
2021/11/13 03:07:03;;;;;;;15.18;12.27;;;9.20;99.90;;;;;;5011974;28;20073;-85
2021/11/13 03:09:29;;;;;;;15.35;11.73;;;9.20;99.90;;;;;;4995343;28;20140;-85
2021/11/13 03:11:55;;;;;;;16.08;13.23;;;9.20;99.90;;;;;;4996761;28;20129;-85
2021/11/13 03:14:20;;;;;;;17.75;13.93;;;9.20;99.90;;;;;;4996616;28;20038;-86
2021/11/13 03:16:46;;;;;;;15.10;12.20;;;9.20;99.90;;;;;;4995447;28;20396;-86
2021/11/13 03:19:12;;;;;;;19.27;14.68;;;9.20;99.90;;;;;;4996543;28;20063;-86
2021/11/13 03:21:42;;;;;;;15.45;12.70;;;9.30;99.90;;;;;;4996937;28;20042;-87
2021/11/13 03:24:08;;;;;;;16.38;12.88;;;9.30;99.90;;;;;;4995998;28;20073;-86
2021/11/13 03:26:34;;;;;;;22.00;14.40;;;9.30;99.90;;;;;;4996023;28;20129;-87
2021/11/13 03:29:08;;;;;;;21.48;16.77;;;9.30;99.90;;;;;;4996795;28;20080;-87
2021/11/13 03:31:40;;;;;;;22.88;17.08;;;9.30;99.90;;;;;;4995031;28;20085;-87
2021/11/13 03:34:06;;;;;;;23.83;17.45;;;9.30;99.90;;;;;;4995404;28;20038;-86
2021/11/13 03:36:33;;;;;;;21.27;15.65;;;9.30;99.90;;;;;;4995129;28;20103;-86
2021/11/13 03:38:58;;;;;;;16.35;13.32;;;9.30;99.90;;;;;;4995477;28;20137;-87
2021/11/13 03:41:24;;;;;;;26.70;17.65;;;9.30;99.90;;;;;;4996381;28;20049;-86
2021/11/13 03:43:50;;;;;;;20.63;15.40;;;9.30;99.90;;;;;;4995533;28;20053;-87
2021/11/13 03:46:16;;;;;;;20.65;15.25;;;9.30;99.90;;;;;;4995673;28;20056;-89
2021/11/13 03:48:43;;;;;;;23.30;17.02;;;9.40;99.90;;;;;;4996657;28;20123;-88
2021/11/13 03:51:09;;;;;;;20.75;15.65;;;9.40;99.90;;;;;;5046493;23;20054;-88
2021/11/13 03:53:34;;;;;;;21.63;16.33;;;9.40;99.90;;;;;;4992645;28;20069;-86
2021/11/13 03:56:06;;;;;;;23.27;18.38;;;9.40;99.90;;;;;;4992494;28;20128;-86
2021/11/13 03:58:41;;;;;;;24.67;17.60;;;9.40;99.90;;;;;;4992010;28;20066;-86
2021/11/13 04:01:07;;;;;;;21.83;16.90;;;9.40;99.90;;;;;;4992478;28;20497;-87
2021/11/13 04:03:36;;;;;;;23.52;18.67;;;9.40;99.90;;;;;;4992160;28;20070;-87
2021/11/13 04:06:01;;;;;;;23.52;17.33;;;9.40;99.90;;;;;;4991303;28;20050;-87
2021/11/13 04:08:27;;;;;;;20.15;16.15;;;9.50;99.90;;;;;;4996691;28;20561;-87
2021/11/13 04:10:53;;;;;;;24.38;17.83;;;9.50;99.90;;;;;;4996690;28;20495;-87
2021/11/13 04:13:18;;;;;;;21.10;16.73;;;9.50;99.90;;;;;;4995714;28;20125;-87
2021/11/13 04:15:44;;;;;;;22.70;17.55;;;9.50;99.90;;;;;;4997282;28;20121;-88
2021/11/13 04:18:10;;;;;;;23.45;17.85;;;9.50;99.90;;;;;;4995857;28;20477;-87
2021/11/13 04:20:35;;;;;;;23.85;18.30;;;9.50;99.90;;;;;;4995662;28;20050;-86
2021/11/13 04:23:02;;;;;;;24.08;18.02;;;9.50;99.90;;;;;;4996092;28;20398;-87
2021/11/13 04:25:27;;;;;;;21.38;17.63;;;9.50;99.90;;;;;;4996285;28;20085;-87
2021/11/13 04:27:54;;;;;;;26.38;19.13;;;9.50;99.90;;;;;;4995805;28;20042;-86
2021/11/13 04:30:20;;;;;;;30.52;21.48;;;9.60;99.90;;;;;;4996154;28;20105;-85
2021/11/13 04:32:48;;;;;;;25.70;18.98;;;9.60;99.90;;;;;;4994527;28;20054;-85
2021/11/13 04:35:20;;;;;;;24.15;18.85;;;9.60;99.90;;;;;;4980822;28;20371;-85
2021/11/13 04:37:53;;;;;;;26.07;19.87;;;9.60;99.90;;;;;;4996430;28;20485;-85
2021/11/13 04:40:20;;;;;;;25.77;20.30;;;9.60;99.90;;;;;;4995295;28;20536;-85
2021/11/13 04:42:46;;;;;;;28.02;20.95;;;9.60;99.90;;;;;;4995830;28;20057;-85
2021/11/13 04:45:12;;;;;;;25.63;19.50;;;9.60;99.90;;;;;;4995818;28;20406;-86
2021/11/13 04:47:38;;;;;;;28.65;20.98;;;9.60;99.90;;;;;;4995224;28;20093;-87
2021/11/13 04:50:09;;;;;;;25.88;17.58;;;9.60;99.90;;;;;;4995062;28;20568;-86
2021/11/13 04:52:35;;;;;;;31.33;21.42;;;9.60;99.90;;;;;;4996037;28;20389;-87
2021/11/13 04:55:02;;;;;;;28.25;21.70;;;9.70;99.90;;;;;;4995368;28;20050;-87
2021/11/13 04:57:28;;;;;;;27.63;20.13;;;9.70;99.90;;;;;;4996139;28;20049;-87
2021/11/13 04:59:53;;;;;;;30.45;21.60;;;9.70;99.90;;;;;;4996087;28;20050;-86
2021/11/13 05:02:19;;;;;;;29.40;21.50;;;9.70;99.90;;;;;;4985153;28;20051;-86
2021/11/13 05:04:45;;;;;;;28.98;21.42;;;9.60;99.90;;;;;;4995137;28;20042;-86
2021/11/13 05:07:10;;;;;;;29.00;22.52;;;9.70;99.90;;;;;;4995869;28;20113;-87
2021/11/13 05:09:36;;;;;;;31.55;22.98;;;9.70;99.90;;;;;;4995001;28;20056;-87
2021/11/13 05:12:01;;;;;;;32.03;23.33;;;9.70;99.90;;;;;;4995141;28;20035;-86
2021/11/13 05:14:27;;;;;;;33.20;22.55;;;9.70;99.90;;;;;;4995618;28;20046;-87
2021/11/13 05:16:55;;;;;;;33.00;22.70;;;9.70;99.90;;;;;;4994690;28;20053;-87
2021/11/13 05:19:20;;;;;;;30.67;22.95;;;9.70;99.90;;;;;;4993989;28;20057;-87
2021/11/13 05:21:46;;;;;;;31.10;23.00;;;9.70;99.90;;;;;;4989974;28;20050;-87
2021/11/13 05:24:12;;;;;;;30.80;21.98;;;9.70;99.90;;;;;;4994279;28;20047;-87
2021/11/13 05:26:37;;;;;;;33.53;23.02;;;9.70;99.90;;;;;;4995686;28;20054;-87
2021/11/13 05:29:03;;;;;;;28.35;22.55;;;9.80;99.90;;;;;;4994666;28;20075;-88
2021/11/13 05:31:28;;;;;;;31.10;22.90;;;9.80;99.90;;;;;;4994257;28;20414;-87
2021/11/13 05:33:54;;;;;;;29.33;22.20;;;9.80;99.90;;;;;;4995619;28;20046;-86
2021/11/13 05:36:20;;;;;;;29.50;23.15;;;9.80;99.90;;;;;;4994360;28;20038;-87
2021/11/13 05:38:46;;;;;;;32.38;22.48;;;9.80;99.90;;;;;;4995006;28;20457;-87
2021/11/13 05:41:11;;;;;;;30.90;21.95;;;9.80;99.90;;;;;;4995369;28;20061;-87
2021/11/13 05:43:37;;;;;;;29.63;22.20;;;9.80;99.90;;;;;;4994604;28;20516;-88
2021/11/13 05:46:02;;;;;;;31.08;23.35;;;9.80;99.90;;;;;;4994553;28;20493;-88
2021/11/13 05:48:28;;;;;;;30.58;21.38;;;9.80;99.90;;;;;;4991553;28;20470;-87
2021/11/13 05:50:53;;;;;;;26.90;20.73;;;9.80;99.90;;;;;;4993903;28;20054;-87
2021/11/13 05:53:19;;;;;;;28.25;21.70;;;9.80;99.90;;;;;;4993883;28;20528;-87
2021/11/13 05:55:45;;;;;;;31.60;22.20;;;9.80;99.90;;;;;;4994838;28;20371;-86
2021/11/13 05:58:11;;;;;;;29.15;21.35;;;9.80;99.90;;;;;;4993706;28;20038;-87
2021/11/13 06:00:37;;;;;;;29.75;21.75;;;9.80;99.90;;;;;;4978630;28;20038;-86
2021/11/13 06:03:02;;;;;;;26.48;20.55;;;9.80;99.90;;;;;;4993925;28;20049;-86
2021/11/13 06:05:28;;;;;;;28.92;21.25;;;9.80;99.90;;;;;;4994049;28;20201;-87
2021/11/13 06:07:54;;;;;;;28.98;21.13;;;9.80;99.90;;;;;;4994452;28;20089;-86
2021/11/13 06:10:20;;;;;;;32.17;21.73;;;9.80;99.90;;;;;;4994250;28;20081;-87
2021/11/13 06:12:49;;;;;;;30.33;22.02;;;9.90;99.90;;;;;;4994110;28;20433;-87
2021/11/13 06:15:15;;;;;;;26.98;21.95;;;9.90;99.90;;;;;;4993794;28;20478;-86
2021/11/13 06:17:41;;;;;;;26.30;19.20;;;9.90;99.90;;;;;;4993997;28;20101;-87
2021/11/13 06:20:10;;;;;;;25.23;19.33;;;9.90;99.90;;;;;;4993145;28;20054;-88
2021/11/13 06:22:36;;;;;;;27.85;20.52;;;9.80;99.90;;;;;;4994309;28;20048;-88
2021/11/13 06:25:05;;;;;;;28.77;20.88;;;9.90;99.90;;;;;;4993469;28;20097;-87
2021/11/13 06:27:35;;;;;;;25.92;20.58;;;9.90;99.90;;;;;;4993849;28;20133;-87
2021/11/13 06:30:00;;;;;;;24.08;20.10;;;9.90;99.90;;;;;;4993442;28;20065;-88
2021/11/13 06:32:26;;;;;;;25.50;19.55;;;9.90;99.90;;;;;;4993552;28;20549;-88
2021/11/13 06:34:56;;;;;;;28.10;21.02;;;9.90;99.90;;;;;;4993952;28;20383;-88
2021/11/13 06:37:22;;;;;;;24.33;19.65;;;9.90;99.90;;;;;;4994504;28;20049;-87
2021/11/13 06:39:47;;;;;;;24.58;20.27;;;9.90;99.90;;;;;;4993061;28;20165;-87
2021/11/13 06:42:13;;;;;;;28.23;20.90;;;9.90;99.90;;;;;;4993254;28;20117;-87
2021/11/13 06:44:39;;;;;;;23.48;18.67;;;9.90;99.90;;;;;;4993520;28;20154;-88
2021/11/13 06:47:04;;;;;;;23.70;18.98;;;9.90;99.90;;;;;;4992648;28;20049;-87
2021/11/13 06:49:31;;;;;;;22.50;17.08;;;9.90;99.90;;;;;;4993731;28;20140;-86
2021/11/13 06:51:57;;;;;;;23.33;18.48;;;9.90;99.90;;;;;;4988835;28;20122;-87
2021/11/13 06:54:22;;;;;;;23.52;18.95;;;9.90;99.90;;;;;;4992750;28;20062;-87
2021/11/13 06:56:49;;;;;;;24.38;19.00;;;9.90;99.90;;;;;;4993927;28;20046;-87
2021/11/13 06:59:15;;;;;;;20.75;17.27;;;9.90;99.90;;;;;;4993888;28;20070;-88
2021/11/13 07:01:41;;;;;;;20.08;17.08;;;9.90;99.90;;;;;;4989766;28;20069;-88
2021/11/13 07:04:06;;;;;;;22.92;18.60;;;9.90;99.90;;;;;;4993735;28;20470;-88
2021/11/13 07:09:00;;;;;;;22.17;17.52;;;9.90;99.90;;;;;;5162928;23;20064;-88
2021/11/13 07:11:27;;;;;;;23.42;18.60;;;9.90;99.90;;;;;;5016342;28;20050;-88
2021/11/13 07:13:53;;;;;;;20.60;16.45;;;9.90;99.90;;;;;;5018039;28;20050;-87
2021/11/13 07:16:18;;;;;;;20.40;17.52;;;9.90;99.90;;;;;;5010265;28;20041;-87
2021/11/13 07:18:47;;;;;;;26.40;18.25;;;9.90;99.90;;;;;;5016163;28;20045;-86
2021/11/13 07:21:13;;;;;;;23.13;18.70;;;9.90;99.90;;;;;;5015809;28;20042;-87
2021/11/13 07:23:41;;;;;;;24.70;18.80;;;9.90;99.90;;;;;;5007988;28;20048;-87
2021/11/13 07:26:13;;;;;;;20.35;17.65;;;10.00;99.90;;;;;;5010480;28;20080;-87
2021/11/13 07:28:49;;;;;;;22.70;18.48;;;10.00;99.90;;;;;;5014567;28;20053;-87
2021/11/13 07:31:30;;;;;;;22.73;18.17;;;10.00;99.90;;;;;;5009419;28;20092;-87
2021/11/13 07:33:56;;;;;;;22.83;17.48;;;10.00;99.90;;;;;;5014761;28;20045;-87
2021/11/13 07:38:47;;;;;;;22.58;18.67;;;10.00;99.90;;;;;;5037228;23;20057;-87
2021/11/13 07:41:14;;;;;;;24.73;19.30;;;10.00;99.90;;;;;;5004169;28;20085;-85
2021/11/13 07:43:40;;;;;;;19.80;15.45;;;10.00;99.90;;;;;;5013047;28;20397;-86
2021/11/13 07:46:06;;;;;;;23.20;18.05;;;10.00;99.90;;;;;;5015712;28;20034;-86
2021/11/13 07:48:32;;;;;;;22.10;18.10;;;10.00;99.90;;;;;;5015307;28;20507;-86
2021/11/13 07:51:22;;;;;;;22.15;17.55;;;10.10;99.90;;;;;;5012757;28;20489;-88
2021/11/13 07:53:49;;;;;;;24.23;19.60;;;10.00;99.90;;;;;;5010613;28;20762;-88
2021/11/13 07:56:27;;;;;;;26.92;20.80;;;10.00;99.90;;;;;;5011827;28;20061;-88
2021/11/13 07:58:58;;;;;;;28.48;20.50;;;10.10;99.90;;;;;;5012034;28;20041;-87
2021/11/13 08:01:24;;;;;;;27.48;21.20;;;10.10;99.90;;;;;;5011969;28;20041;-87
2021/11/13 08:03:53;;;;;;;27.17;19.83;;;10.10;99.90;;;;;;5011329;28;20052;-86
2021/11/13 08:06:21;;;;;;;24.17;18.20;;;10.10;99.90;;;;;;5013305;28;20045;-84
2021/11/13 08:08:50;;;;;;;29.48;22.67;;;10.10;99.90;;;;;;5033358;28;20124;-84
2021/11/13 08:11:16;;;;;;;29.02;21.70;;;10.20;99.90;;;;;;5014394;28;20079;-84
2021/11/13 08:13:42;;;;;;;24.75;18.90;;;10.20;99.90;;;;;;5014242;28;20077;-83
2021/11/13 08:16:13;;;;;;;28.55;21.25;;;10.10;99.90;;;;;;5004030;28;20053;-83
2021/11/13 08:18:39;;;;;;;27.23;21.25;;;10.20;99.90;;;;;;5013843;28;20053;-83
2021/11/13 08:21:11;;;;;;;28.08;21.17;;;10.20;99.90;;;;;;5015511;28;20495;-88
2021/11/13 08:23:38;;;;;;;21.17;17.10;;;10.20;99.90;;;;;;5013677;28;20128;-82
2021/11/13 08:26:04;;;;;;;22.05;18.20;;;10.20;99.90;;;;;;5013616;28;20064;-83
2021/11/13 08:28:30;;;;;;;27.98;21.50;;;10.20;99.90;;;;;;5013845;28;20030;-83
2021/11/13 08:30:56;;;;;;;27.83;22.00;;;10.30;99.90;;;;;;5014076;28;20049;-84
2021/11/13 08:33:23;;;;;;;21.52;18.15;;;10.30;99.90;;;;;;5009322;28;20400;-82
2021/11/13 08:35:50;;;;;;;22.33;17.88;;;10.30;99.90;;;;;;5004790;28;20084;-83
2021/11/13 08:38:18;;;;;;;22.85;18.70;;;10.30;99.90;;;;;;5015254;28;20057;-83
2021/11/13 08:40:44;;;;;;;21.10;17.25;;;10.30;99.90;;;;;;5012686;28;20140;-83
2021/11/13 08:43:10;;;;;;;28.20;21.73;;;10.30;99.90;;;;;;5014213;28;20136;-83
2021/11/13 08:45:36;;;;;;;30.00;22.15;;;10.30;99.90;;;;;;5014410;28;20045;-83
2021/11/13 08:48:03;;;;;;;33.40;23.52;;;10.30;99.90;;;;;;5013087;28;20066;-83
2021/11/13 08:50:30;;;;;;;35.70;24.23;;;10.40;99.90;;;;;;5013281;28;20049;-84
2021/11/13 08:53:01;;;;;;;35.28;23.35;;;10.40;99.90;;;;;;5015734;28;20091;-84
2021/11/13 08:55:30;;;;;;;30.38;22.98;;;10.40;99.90;;;;;;5013348;28;20063;-84
2021/11/13 08:57:58;;;;;;;34.35;23.50;;;10.40;99.90;;;;;;5012621;28;20057;-83
2021/11/13 09:00:53;;;;;;;33.60;23.35;;;10.40;99.90;;;;;;5008574;28;20441;-84
2021/11/13 09:03:24;;;;;;;28.08;20.88;;;10.40;99.90;;;;;;4999743;28;20095;-84
2021/11/13 09:05:50;;;;;;;31.73;22.58;;;10.50;99.90;;;;;;5018639;28;20079;-83
2021/11/13 09:08:16;;;;;;;30.55;22.02;;;10.50;99.90;;;;;;5017676;28;20052;-83
2021/11/13 09:10:45;;;;;;;31.40;22.40;;;10.50;99.90;;;;;;5018755;28;20068;-83
2021/11/13 09:13:12;;;;;;;28.40;21.58;;;10.50;99.90;;;;;;5018812;28;20053;-84
2021/11/13 09:15:39;;;;;;;31.42;21.80;;;10.50;99.90;;;;;;5019702;28;20051;-83
2021/11/13 09:18:06;;;;;;;29.73;21.80;;;10.50;99.90;;;;;;5018698;28;20060;-83
2021/11/13 09:20:31;;;;;;;22.95;17.30;;;10.50;99.90;;;;;;5018565;28;20080;-83
2021/11/13 09:22:57;;;;;;;31.92;22.02;;;10.50;99.90;;;;;;5034022;28;20060;-83
2021/11/13 09:25:24;;;;;;;30.63;23.58;;;10.60;99.90;;;;;;5038107;28;20044;-83
2021/11/13 09:27:50;;;;;;;28.83;21.52;;;10.60;99.90;;;;;;5038305;28;20041;-83
2021/11/13 09:30:19;;;;;;;32.00;23.63;;;10.60;99.90;;;;;;5037032;28;20041;-84
2021/11/13 09:32:46;;;;;;;33.55;22.17;;;10.60;99.90;;;;;;5038136;28;20369;-83
2021/11/13 09:35:14;;;;;;;30.85;20.73;;;10.60;99.90;;;;;;5022289;28;20046;-84
2021/11/13 09:37:40;;;;;;;31.95;22.77;;;10.60;99.90;;;;;;5017021;28;20113;-84
2021/11/13 09:40:10;;;;;;;28.27;19.27;;;10.70;99.90;;;;;;5017076;28;20057;-83
2021/11/13 09:42:35;;;;;;;26.02;20.63;;;10.70;99.90;;;;;;5016510;28;20061;-83
2021/11/13 09:45:01;;;;;;;31.13;21.73;;;10.70;99.90;;;;;;5017459;28;20038;-83
2021/11/13 09:47:27;;;;;;;30.48;22.17;;;10.70;99.90;;;;;;5017743;28;20048;-83
2021/11/13 09:49:54;;;;;;;34.33;25.50;;;10.70;99.90;;;;;;5012990;28;20389;-83
2021/11/13 09:52:20;;;;;;;31.00;23.42;;;10.70;99.90;;;;;;5016458;28;20037;-83
2021/11/13 09:54:46;;;;;;;31.60;23.85;;;10.70;99.90;;;;;;5018003;28;20049;-83
2021/11/13 09:57:12;;;;;;;32.10;23.08;;;10.70;99.90;;;;;;5016823;28;20040;-84
2021/11/13 09:59:38;;;;;;;29.55;23.40;;;10.70;99.90;;;;;;5017985;28;20046;-85
2021/11/13 10:02:04;;;;;;;31.88;22.25;;;10.70;99.90;;;;;;5016166;28;20424;-85
2021/11/13 10:04:30;;;;;;;18.10;15.05;;;10.70;99.90;;;;;;5015231;28;20041;-84
2021/11/13 10:06:56;;;;;;;27.95;21.65;;;10.70;99.90;;;;;;5016935;28;20049;-84
2021/11/13 10:09:22;;;;;;;29.17;21.25;;;10.70;99.90;;;;;;5017636;28;20087;-84
2021/11/13 10:11:51;;;;;;;35.65;24.00;;;10.80;99.90;;;;;;5016557;28;20045;-84
2021/11/13 10:14:30;;;;;;;32.80;22.90;;;10.80;99.90;;;;;;5016892;28;20041;-84
2021/11/13 10:16:56;;;;;;;25.98;19.77;;;10.80;99.90;;;;;;5036080;28;20140;-84
2021/11/13 10:19:21;;;;;;;29.58;21.85;;;10.80;99.90;;;;;;5035840;28;20482;-84
2021/11/13 10:21:52;;;;;;;29.80;21.98;;;10.80;99.90;;;;;;5021774;28;20042;-84
2021/11/13 10:24:24;;;;;;;29.27;20.75;;;10.80;99.90;;;;;;5017288;28;20077;-84
2021/11/13 10:26:53;;;;;;;33.58;23.77;;;10.80;99.90;;;;;;5016468;28;20115;-84
2021/11/13 10:29:31;;;;;;;22.65;18.05;;;10.80;99.90;;;;;;5016370;28;20041;-84
2021/11/13 10:32:04;;;;;;;27.77;20.05;;;10.80;99.90;;;;;;5015830;28;20055;-84
2021/11/13 10:34:36;;;;;;;22.92;17.80;;;10.80;99.90;;;;;;5021267;28;20042;-84
2021/11/13 10:37:08;;;;;;;34.00;25.27;;;10.80;99.90;;;;;;5035861;28;20088;-84
2021/11/13 10:39:37;;;;;;;32.60;24.27;;;10.80;99.90;;;;;;5035709;28;20037;-84
2021/11/13 10:42:11;;;;;;;28.73;20.17;;;10.80;99.90;;;;;;5035733;28;20049;-84
2021/11/13 10:44:46;;;;;;;31.52;21.90;;;10.80;99.90;;;;;;5029696;28;20137;-84
2021/11/13 10:47:23;;;;;;;31.92;21.75;;;10.80;99.90;;;;;;5015134;28;20427;-84
2021/11/13 10:49:51;;;;;;;29.90;21.23;;;10.80;99.90;;;;;;5016404;28;20132;-84
2021/11/13 10:52:20;;;;;;;25.88;18.77;;;10.90;99.90;;;;;;5016167;28;20111;-84
2021/11/13 10:54:50;;;;;;;43.33;27.48;;;10.90;99.90;;;;;;5015480;28;20045;-84
2021/11/13 10:57:30;;;;;;;34.35;25.98;;;10.90;99.90;;;;;;5024661;28;20056;-84
2021/11/13 11:00:14;;;;;;;32.42;23.58;;;10.90;99.90;;;;;;5008322;28;20060;-84
2021/11/13 11:02:40;;;;;;;27.75;21.15;;;10.90;99.90;;;;;;4996813;28;20042;-83
2021/11/13 11:05:17;;;;;;;34.45;22.25;;;10.90;99.90;;;;;;5005074;28;20551;-83
2021/11/13 11:07:42;;;;;;;35.67;23.88;;;10.90;99.90;;;;;;5012766;28;20859;-84
2021/11/13 11:10:11;;;;;;;35.45;23.67;;;10.90;99.90;;;;;;5000954;28;20037;-84
2021/11/13 11:12:39;;;;;;;35.72;21.83;;;10.90;99.90;;;;;;5011387;28;20044;-84
2021/11/13 11:15:13;;;;;;;36.13;22.90;;;10.90;99.90;;;;;;5027186;28;20048;-84
2021/11/13 11:17:42;;;;;;;33.85;22.08;;;10.90;99.90;;;;;;4996034;28;20042;-84
2021/11/13 11:20:14;;;;;;;38.40;22.00;;;11.00;99.90;;;;;;5002873;28;20636;-84
2021/11/13 11:22:41;;;;;;;35.28;21.55;;;11.00;99.90;;;;;;5021573;28;20351;-84
2021/11/13 11:25:09;;;;;;;37.85;23.27;;;11.00;99.90;;;;;;5015025;28;20123;-83
2021/11/13 11:27:42;;;;;;;35.13;22.67;;;11.00;99.90;;;;;;5015323;28;20052;-83
2021/11/13 11:30:11;;;;;;;30.90;21.33;;;11.00;99.90;;;;;;5010096;28;20045;-84
2021/11/13 11:32:46;;;;;;;24.88;18.20;;;11.00;99.90;;;;;;5016568;28;20053;-84
2021/11/13 11:35:20;;;;;;;37.22;22.23;;;11.00;99.90;;;;;;5015165;28;20055;-84
2021/11/13 11:37:55;;;;;;;35.42;23.20;;;11.00;99.90;;;;;;5014667;28;20084;-86
2021/11/13 11:40:27;;;;;;;35.80;21.90;;;11.00;99.90;;;;;;5015064;28;20128;-84
2021/11/13 11:42:53;;;;;;;39.58;22.02;;;11.00;99.90;;;;;;5011020;28;20042;-85
2021/11/13 11:45:31;;;;;;;34.15;22.92;;;11.00;99.90;;;;;;5010932;28;20041;-84
2021/11/13 11:47:57;;;;;;;33.15;22.00;;;11.00;99.90;;;;;;5015328;28;20132;-85
2021/11/13 11:50:26;;;;;;;29.48;20.83;;;11.00;99.90;;;;;;5014864;28;20087;-85
2021/11/13 11:53:05;;;;;;;34.60;21.25;;;11.10;99.90;;;;;;5015578;28;20042;-86
2021/11/13 11:55:32;;;;;;;29.50;20.23;;;11.10;99.90;;;;;;5015869;28;20124;-86
2021/11/13 11:58:00;;;;;;;32.13;21.15;;;11.10;99.90;;;;;;5014244;28;20069;-85
2021/11/13 12:00:28;;;;;;;27.75;19.63;;;11.10;99.90;;;;;;5015608;28;20048;-85
2021/11/13 12:02:57;;;;;;;24.75;19.02;;;11.10;99.90;;;;;;5015654;28;20050;-85
2021/11/13 12:05:30;;;;;;;31.10;21.90;;;11.10;99.90;;;;;;5015222;28;20555;-86
2021/11/13 12:07:58;;;;;;;26.70;18.95;;;11.10;99.90;;;;;;5015705;28;20420;-85
2021/11/13 12:10:31;;;;;;;19.23;14.75;;;11.10;99.90;;;;;;5015018;28;20136;-85
2021/11/13 12:13:14;;;;;;;32.25;21.58;;;11.20;99.90;;;;;;5015727;28;20048;-86
2021/11/13 12:15:46;;;;;;;32.30;21.45;;;11.10;99.90;;;;;;5016135;28;20050;-85
2021/11/13 12:18:21;;;;;;;35.03;22.65;;;11.20;99.90;;;;;;5022516;28;20040;-85
2021/11/13 12:21:02;;;;;;;33.38;21.35;;;11.20;99.90;;;;;;5033387;28;20037;-85
2021/11/13 12:23:29;;;;;;;25.92;18.98;;;11.20;99.90;;;;;;5017750;28;20033;-86
2021/11/13 12:26:05;;;;;;;18.52;14.52;;;11.20;99.90;;;;;;5001143;28;20389;-85
2021/11/13 12:28:31;;;;;;;21.67;15.20;;;11.20;99.90;;;;;;5014505;28;20042;-85
2021/11/13 12:31:05;;;;;;;17.80;14.75;;;11.20;99.90;;;;;;5019444;28;20057;-85
2021/11/13 12:33:37;;;;;;;18.88;14.70;;;11.20;99.90;;;;;;5018989;28;20053;-86
2021/11/13 12:36:04;;;;;;;23.15;16.73;;;11.20;99.90;;;;;;5019156;28;20045;-85
2021/11/13 12:38:30;;;;;;;21.27;17.25;;;11.30;99.90;;;;;;5018034;28;20107;-85
2021/11/13 12:41:28;;;;;;;23.52;16.73;;;11.30;99.90;;;;;;5019037;28;20053;-86